createdAt,value
2019-03-06T00:00:47.882Z,17.80
2019-03-06T00:03:16.710Z,17.90
2019-03-06T00:05:45.429Z,16.67
2019-03-06T00:08:14.211Z,16.47
2019-03-06T00:10:42.940Z,16.97
2019-03-06T00:13:11.661Z,17.23
2019-03-06T00:15:40.470Z,15.83
2019-03-06T00:18:09.199Z,14.93
2019-03-06T00:20:37.922Z,13.03
2019-03-06T00:23:07.175Z,11.73
2019-03-06T00:25:35.912Z,10.33
2019-03-06T00:28:04.639Z,10.93
2019-03-06T00:30:33.510Z,10.93
2019-03-06T00:33:02.239Z,10.07
2019-03-06T00:35:35.278Z,9.70
2019-03-06T00:38:04.054Z,10.10
2019-03-06T00:40:37.667Z,10.03
2019-03-06T00:43:06.380Z,9.47
2019-03-06T00:45:35.163Z,10.00
2019-03-06T00:48:04.093Z,10.03
2019-03-06T00:50:32.823Z,10.47
2019-03-06T00:53:01.759Z,9.57
2019-03-06T00:55:30.494Z,8.83
2019-03-06T00:57:59.205Z,8.90
2019-03-06T01:00:28.088Z,8.07
2019-03-06T01:02:56.815Z,9.17
2019-03-06T01:05:25.916Z,8.00
2019-03-06T01:07:54.982Z,8.17
2019-03-06T01:10:23.698Z,8.03
2019-03-06T01:12:52.417Z,8.20
2019-03-06T01:15:21.747Z,7.50
2019-03-06T01:17:50.633Z,6.30
2019-03-06T01:20:19.344Z,5.93
2019-03-06T01:22:48.195Z,5.47
2019-03-06T01:25:18.306Z,5.90
2019-03-06T01:27:47.026Z,6.47
2019-03-06T01:30:21.643Z,6.17
2019-03-06T01:32:58.273Z,6.27
2019-03-06T01:35:35.071Z,5.80
2019-03-06T01:38:08.413Z,5.80
2019-03-06T01:40:38.831Z,5.70
2019-03-06T01:43:17.908Z,7.07
2019-03-06T01:45:46.618Z,6.50
2019-03-06T01:48:15.515Z,8.30
2019-03-06T01:50:44.391Z,7.30
2019-03-06T01:53:13.110Z,7.90
2019-03-06T01:55:41.827Z,8.13
2019-03-06T01:58:10.707Z,8.23
2019-03-06T02:00:40.606Z,7.50
2019-03-06T02:03:09.314Z,6.83
2019-03-06T02:05:38.189Z,6.80
2019-03-06T02:08:07.713Z,6.27
2019-03-06T02:10:36.547Z,7.10
2019-03-06T02:13:08.208Z,6.77
2019-03-06T02:15:38.531Z,6.90
2019-03-06T02:18:07.351Z,6.57
2019-03-06T02:20:36.298Z,7.17
2019-03-06T02:23:05.013Z,7.53
2019-03-06T02:25:33.730Z,7.50
2019-03-06T02:28:02.500Z,7.73
2019-03-06T02:30:31.221Z,9.17
2019-03-06T02:32:59.948Z,10.80
2019-03-06T02:35:28.814Z,10.57
2019-03-06T02:37:57.719Z,8.87
2019-03-06T02:40:26.431Z,10.13
2019-03-06T02:42:55.326Z,8.63
2019-03-06T02:45:24.086Z,8.20
2019-03-06T02:47:52.845Z,7.53
2019-03-06T02:50:21.635Z,8.20
2019-03-06T02:52:50.374Z,7.80
2019-03-06T02:55:19.489Z,8.57
2019-03-06T02:57:53.060Z,9.50
2019-03-06T03:00:29.457Z,9.73
2019-03-06T03:02:59.823Z,13.20
2019-03-06T03:05:30.118Z,11.67
2019-03-06T03:07:58.849Z,12.90
2019-03-06T03:10:27.717Z,9.67
2019-03-06T03:12:56.443Z,8.50
2019-03-06T03:15:25.167Z,10.00
2019-03-06T03:17:54.052Z,10.03
2019-03-06T03:20:22.773Z,11.80
2019-03-06T03:22:51.495Z,11.37
2019-03-06T03:25:20.260Z,15.07
2019-03-06T03:27:48.984Z,13.23
2019-03-06T03:30:17.717Z,12.27
2019-03-06T03:32:46.514Z,12.63
2019-03-06T03:35:15.236Z,12.20
2019-03-06T03:37:43.975Z,12.77
2019-03-06T03:40:15.213Z,12.23
2019-03-06T03:42:43.949Z,12.63
2019-03-06T03:45:15.573Z,12.33
2019-03-06T03:47:44.342Z,12.63
2019-03-06T03:50:13.067Z,23.93
2019-03-06T03:52:41.968Z,15.27
2019-03-06T03:55:16.786Z,14.20
2019-03-06T03:57:45.511Z,17.53
2019-03-06T04:00:21.770Z,17.43
2019-03-06T04:02:50.945Z,16.43
2019-03-06T04:05:19.675Z,16.17
2019-03-06T04:07:48.455Z,19.63
2019-03-06T04:10:17.174Z,20.37
2019-03-06T04:12:45.907Z,20.83
2019-03-06T04:15:18.773Z,21.43
2019-03-06T04:17:47.492Z,21.53
2019-03-06T04:20:17.774Z,22.23
2019-03-06T04:22:46.672Z,20.97
2019-03-06T04:25:15.386Z,22.00
2019-03-06T04:27:44.116Z,23.03
2019-03-06T04:30:14.304Z,25.43
2019-03-06T04:32:43.024Z,25.53
2019-03-06T04:35:11.951Z,22.80
2019-03-06T04:37:40.718Z,27.13
2019-03-06T04:40:16.998Z,26.07
2019-03-06T04:42:46.117Z,31.47
2019-03-06T04:45:16.804Z,30.37
2019-03-06T04:47:45.524Z,27.10
2019-03-06T04:50:15.112Z,27.13
2019-03-06T04:52:44.108Z,26.23
2019-03-06T04:55:14.472Z,28.13
2019-03-06T04:57:43.263Z,27.50
2019-03-06T05:00:19.221Z,28.07
2019-03-06T05:02:48.176Z,25.30
2019-03-06T05:05:16.903Z,24.23
2019-03-06T05:07:45.638Z,25.57
2019-03-06T05:10:15.061Z,28.83
2019-03-06T05:12:43.801Z,33.40
2019-03-06T05:15:17.130Z,32.40
2019-03-06T05:17:59.377Z,36.50
2019-03-06T05:20:28.102Z,37.93
2019-03-06T05:22:56.833Z,44.40
2019-03-06T05:25:25.635Z,48.93
2019-03-06T05:27:54.356Z,42.67
2019-03-06T05:30:24.653Z,36.67
2019-03-06T05:32:56.337Z,36.67
2019-03-06T05:35:39.788Z,37.43
2019-03-06T05:38:18.072Z,37.83
2019-03-06T05:40:46.794Z,37.10
2019-03-06T05:43:15.523Z,36.13
2019-03-06T05:45:44.444Z,34.27
2019-03-06T05:48:13.189Z,31.40
2019-03-06T05:50:41.918Z,28.00
2019-03-06T05:53:10.805Z,28.20
2019-03-06T05:55:39.532Z,27.70
2019-03-06T05:58:08.534Z,26.67
2019-03-06T06:00:37.423Z,25.17
2019-03-06T06:03:06.139Z,26.73
2019-03-06T06:05:34.875Z,39.03
2019-03-06T06:08:03.998Z,28.40
2019-03-06T06:10:33.009Z,29.10
2019-03-06T06:13:01.737Z,28.43
2019-03-06T06:15:30.512Z,26.27
2019-03-06T06:17:59.230Z,23.97
2019-03-06T06:20:27.956Z,21.30
2019-03-06T06:22:58.394Z,18.93
2019-03-06T06:25:27.512Z,19.17
2019-03-06T06:27:56.235Z,19.03
2019-03-06T06:30:25.026Z,17.63
2019-03-06T06:32:53.754Z,17.13
2019-03-06T06:35:22.644Z,17.10
2019-03-06T06:37:51.452Z,16.70
2019-03-06T06:40:20.175Z,17.60
2019-03-06T06:42:48.899Z,18.47
2019-03-06T06:45:18.573Z,17.37
2019-03-06T06:48:12.702Z,18.07
2019-03-06T06:50:44.717Z,18.33
2019-03-06T06:53:45.050Z,17.17
2019-03-06T06:56:42.541Z,17.13
2019-03-06T06:59:32.577Z,17.00
2019-03-06T07:02:26.669Z,15.73
2019-03-06T07:05:11.882Z,15.53
2019-03-06T07:07:48.430Z,15.60
2019-03-06T07:10:35.188Z,14.47
2019-03-06T07:13:20.990Z,14.30
2019-03-06T07:16:07.484Z,14.93
2019-03-06T07:18:38.256Z,14.33
2019-03-06T07:21:14.382Z,14.57
2019-03-06T07:23:53.570Z,14.10
2019-03-06T07:26:23.872Z,14.60
2019-03-06T07:28:54.162Z,13.77
2019-03-06T07:31:41.108Z,13.30
2019-03-06T07:34:14.140Z,13.60
2019-03-06T07:36:44.445Z,13.60
2019-03-06T07:39:17.216Z,13.70
2019-03-06T07:41:47.689Z,12.37
2019-03-06T07:44:17.991Z,12.90
2019-03-06T07:47:04.766Z,12.17
2019-03-06T07:49:50.459Z,12.07
2019-03-06T07:52:21.287Z,12.00
2019-03-06T07:54:51.602Z,11.80
2019-03-06T07:57:21.907Z,12.60
2019-03-06T07:59:50.844Z,11.93
2019-03-06T08:02:28.455Z,12.77
2019-03-06T08:04:57.223Z,12.87
2019-03-06T08:07:25.950Z,10.57
2019-03-06T08:09:54.679Z,10.90
2019-03-06T08:12:27.807Z,10.83
2019-03-06T08:14:58.116Z,11.03
2019-03-06T08:17:31.140Z,11.13
2019-03-06T08:20:10.581Z,10.70
2019-03-06T08:22:49.769Z,10.20
2019-03-06T08:25:22.864Z,9.63
2019-03-06T08:27:52.187Z,9.23
2019-03-06T08:30:20.917Z,9.27
2019-03-06T08:32:49.793Z,9.60
2019-03-06T08:35:18.518Z,8.80
2019-03-06T08:37:47.257Z,8.97
2019-03-06T08:40:16.052Z,9.07
2019-03-06T08:42:44.772Z,9.23
2019-03-06T08:45:25.786Z,8.63
2019-03-06T08:47:56.079Z,8.90
2019-03-06T08:50:26.380Z,9.17
2019-03-06T08:53:11.947Z,8.57
2019-03-06T08:55:42.346Z,10.63
2019-03-06T08:58:22.255Z,8.63
2019-03-06T09:01:01.468Z,9.53
2019-03-06T09:03:33.228Z,10.87
2019-03-06T09:06:12.385Z,9.80
2019-03-06T09:08:45.880Z,8.23
2019-03-06T09:11:33.871Z,7.97
2019-03-06T09:14:13.409Z,8.10
2019-03-06T09:16:52.794Z,7.63
2019-03-06T09:19:26.283Z,8.80
2019-03-06T09:21:56.579Z,9.03
2019-03-06T09:24:26.887Z,10.03
2019-03-06T09:27:00.408Z,9.53
2019-03-06T09:29:36.424Z,8.23
2019-03-06T09:32:23.308Z,7.90
2019-03-06T09:34:53.601Z,7.97
2019-03-06T09:37:39.575Z,7.83
2019-03-06T09:40:14.154Z,8.27
2019-03-06T09:42:44.521Z,8.97
2019-03-06T09:45:15.025Z,8.60
2019-03-06T09:47:51.509Z,13.13
2019-03-06T09:50:27.789Z,9.27
2019-03-06T09:53:10.286Z,11.70
2019-03-06T09:55:43.769Z,9.23
2019-03-06T09:58:30.758Z,7.90
2019-03-06T10:01:06.816Z,8.70
2019-03-06T10:03:54.048Z,8.03
2019-03-06T10:06:30.597Z,9.33
2019-03-06T10:09:19.475Z,7.27
2019-03-06T10:11:49.759Z,6.10
2019-03-06T10:14:35.458Z,7.50
2019-03-06T10:17:08.936Z,6.00
2019-03-06T10:19:39.572Z,6.20
2019-03-06T10:22:08.294Z,5.53
2019-03-06T10:24:37.034Z,5.10
2019-03-06T10:27:05.892Z,5.40
2019-03-06T10:29:34.989Z,5.63
2019-03-06T10:32:03.709Z,5.37
2019-03-06T10:34:32.871Z,6.00
2019-03-06T10:37:01.591Z,5.37
2019-03-06T10:39:31.665Z,3.90
2019-03-06T10:42:00.490Z,4.40
2019-03-06T10:44:30.030Z,3.73
2019-03-06T10:46:58.906Z,3.63
2019-03-06T10:49:27.976Z,3.10
2019-03-06T10:51:56.711Z,3.20
2019-03-06T10:54:25.702Z,3.97
2019-03-06T10:56:54.925Z,2.63
2019-03-06T10:59:23.749Z,2.60
2019-03-06T11:01:52.473Z,2.80
2019-03-06T11:04:25.927Z,2.27
2019-03-06T11:06:54.853Z,2.30
2019-03-06T11:09:26.140Z,2.20
2019-03-06T11:11:55.544Z,2.20
2019-03-06T11:14:24.821Z,2.27
2019-03-06T11:16:55.018Z,2.60
2019-03-06T11:19:26.736Z,2.60
2019-03-06T11:21:55.737Z,1.60
2019-03-06T11:24:24.567Z,1.43
2019-03-06T11:26:53.740Z,2.77
2019-03-06T11:29:22.455Z,2.40
2019-03-06T11:31:51.493Z,2.20
2019-03-06T11:34:27.888Z,2.30
2019-03-06T11:36:57.111Z,2.63
2019-03-06T11:39:26.033Z,2.53
2019-03-06T11:41:56.455Z,3.33
2019-03-06T11:44:26.644Z,2.70
2019-03-06T11:46:56.811Z,2.53
2019-03-06T11:49:25.711Z,2.67
2019-03-06T11:51:54.900Z,2.37
2019-03-06T11:54:23.624Z,20.53
2019-03-06T11:56:52.481Z,4.77
2019-03-06T11:59:22.680Z,3.63
2019-03-06T12:01:51.542Z,2.60
2019-03-06T12:04:21.876Z,5.33
2019-03-06T12:06:55.470Z,7.53
2019-03-06T12:09:31.505Z,4.83
2019-03-06T12:12:05.443Z,3.10
2019-03-06T12:14:38.596Z,2.40
2019-03-06T12:17:07.309Z,4.60
2019-03-06T12:19:37.551Z,1.73
2019-03-06T12:22:06.509Z,2.50
2019-03-06T12:24:35.837Z,2.10
2019-03-06T12:27:06.366Z,2.20
2019-03-06T12:29:35.139Z,2.17
2019-03-06T12:32:05.150Z,1.57
2019-03-06T12:34:35.345Z,1.57
2019-03-06T12:37:04.800Z,1.80
2019-03-06T12:39:33.523Z,1.57
2019-03-06T12:42:14.017Z,1.63
2019-03-06T12:44:37.833Z,2.30
2019-03-06T12:47:10.938Z,2.30
2019-03-06T12:49:39.855Z,2.90
2019-03-06T12:52:09.012Z,1.70
2019-03-06T12:54:37.736Z,5.17
2019-03-06T12:57:06.832Z,1.80
2019-03-06T12:59:35.633Z,1.37
2019-03-06T13:02:04.499Z,2.50
2019-03-06T13:04:33.224Z,1.53
2019-03-06T13:07:02.013Z,1.83
2019-03-06T13:09:30.767Z,1.30
2019-03-06T13:11:59.489Z,1.40
2019-03-06T13:14:30.463Z,1.33
2019-03-06T13:16:58.819Z,1.30
2019-03-06T13:19:31.938Z,1.37
2019-03-06T13:22:01.013Z,1.30
2019-03-06T13:24:29.715Z,2.00
2019-03-06T13:27:02.783Z,1.10
2019-03-06T13:29:31.578Z,1.40
2019-03-06T13:32:00.303Z,1.30
2019-03-06T13:34:30.642Z,1.50
2019-03-06T13:36:59.909Z,1.50
2019-03-06T13:39:28.664Z,1.40
2019-03-06T13:41:57.397Z,1.80
2019-03-06T13:44:30.436Z,1.43
2019-03-06T13:46:59.188Z,4.77
2019-03-06T13:49:28.101Z,3.43
2019-03-06T13:51:57.054Z,1.80
2019-03-06T13:54:25.773Z,2.53
2019-03-06T13:56:58.257Z,2.87
2019-03-06T13:59:27.334Z,2.37
2019-03-06T14:02:04.549Z,2.30
2019-03-06T14:08:01.681Z,2.00
2019-03-06T14:10:23.903Z,2.23
2019-03-06T14:12:52.922Z,2.33
2019-03-06T14:15:36.473Z,2.77
2019-03-06T14:18:08.916Z,2.87
2019-03-06T14:20:40.304Z,2.80
2019-03-06T14:26:13.797Z,2.03
2019-03-06T14:29:08.190Z,2.93
2019-03-06T14:31:24.667Z,2.80
2019-03-06T14:36:42.681Z,1.93
2019-03-06T14:39:30.313Z,1.90
2019-03-06T14:42:03.597Z,2.73
2019-03-06T14:44:34.009Z,1.90
2019-03-06T14:47:02.992Z,3.30
2019-03-06T14:49:32.057Z,12.30
2019-03-06T14:52:07.173Z,2.90
2019-03-06T14:54:31.648Z,7.27
2019-03-06T14:57:04.311Z,2.27
2019-03-06T14:59:35.832Z,2.30
2019-03-06T15:02:04.596Z,4.10
2019-03-06T15:04:33.935Z,2.40
2019-03-06T15:07:02.660Z,4.70
2019-03-06T15:09:31.488Z,4.80
2019-03-06T15:12:00.487Z,7.33
2019-03-06T15:14:35.785Z,2.27
2019-03-06T15:16:59.750Z,6.60
2019-03-06T15:19:28.929Z,4.93
2019-03-06T15:21:57.674Z,7.40
2019-03-06T15:24:29.176Z,26.53
2019-03-06T15:26:59.941Z,9.80
2019-03-06T15:29:28.667Z,10.10
2019-03-06T15:31:57.570Z,6.60
2019-03-06T15:34:26.350Z,8.60
2019-03-06T15:36:55.485Z,4.10
2019-03-06T15:39:31.347Z,4.00
2019-03-06T15:42:02.706Z,5.00
2019-03-06T15:44:30.920Z,8.63
2019-03-06T15:46:59.836Z,16.73
2019-03-06T15:49:29.717Z,6.60
2019-03-06T15:51:58.572Z,6.07
2019-03-06T15:54:27.811Z,7.10
2019-03-06T15:56:56.534Z,12.63
2019-03-06T15:59:25.369Z,9.17
2019-03-06T16:01:54.636Z,8.23
2019-03-06T16:04:23.356Z,9.87
2019-03-06T16:06:54.266Z,11.93
2019-03-06T16:09:23.306Z,18.03
2019-03-06T16:11:52.731Z,18.97
2019-03-06T16:14:22.927Z,16.40
2019-03-06T16:16:51.914Z,20.77
2019-03-06T16:19:23.268Z,13.83
2019-03-06T16:21:53.473Z,13.27
2019-03-06T16:24:23.489Z,16.33
2019-03-06T16:26:52.832Z,17.43
2019-03-06T16:29:23.765Z,17.67
2019-03-06T16:31:52.654Z,12.70
2019-03-06T16:34:21.395Z,14.90
2019-03-06T16:36:50.217Z,19.00
2019-03-06T16:39:23.715Z,17.63
2019-03-06T16:41:52.447Z,18.27
2019-03-06T16:44:21.198Z,19.87
2019-03-06T16:46:50.357Z,23.20
2019-03-06T16:49:25.969Z,25.90
2019-03-06T16:51:56.299Z,43.00
2019-03-06T16:54:30.691Z,76.43
2019-03-06T16:57:05.419Z,230.93
2019-03-06T16:59:38.404Z,210.20
2019-03-06T17:02:10.229Z,137.13
2019-03-06T17:04:39.567Z,76.90
2019-03-06T17:07:09.391Z,50.17
2019-03-06T17:09:38.521Z,52.77
2019-03-06T17:12:07.286Z,44.90
2019-03-06T17:14:37.017Z,44.80
2019-03-06T17:17:07.994Z,53.80
2019-03-06T17:19:37.843Z,57.40
2019-03-06T17:22:06.671Z,56.60
2019-03-06T17:24:35.558Z,61.20
2019-03-06T17:27:04.383Z,48.20
2019-03-06T17:29:33.147Z,41.30
2019-03-06T17:32:02.047Z,34.07
2019-03-06T17:34:30.784Z,35.90
2019-03-06T17:37:01.277Z,34.93
2019-03-06T17:39:30.203Z,51.87
2019-03-06T17:41:58.944Z,62.03
2019-03-06T17:44:27.682Z,88.63
2019-03-06T17:46:56.833Z,78.30
2019-03-06T17:49:25.816Z,54.30
2019-03-06T17:51:56.198Z,49.80
2019-03-06T17:54:25.109Z,53.83
2019-03-06T17:56:53.875Z,45.53
2019-03-06T17:59:25.502Z,46.23
2019-03-06T18:01:54.414Z,46.73
2019-03-06T18:04:26.470Z,35.43
2019-03-06T18:06:57.813Z,39.37
2019-03-06T18:09:29.153Z,36.40
2019-03-06T18:11:57.957Z,30.43
2019-03-06T18:14:26.765Z,27.40
2019-03-06T18:16:55.758Z,29.57
2019-03-06T18:19:24.619Z,48.50
2019-03-06T18:21:53.586Z,57.10
2019-03-06T18:24:22.440Z,34.43
2019-03-06T18:26:54.025Z,30.87
2019-03-06T18:29:26.989Z,27.63
2019-03-06T18:32:00.874Z,40.60
2019-03-06T18:34:28.590Z,49.73
2019-03-06T18:37:00.041Z,39.77
2019-03-06T18:39:32.942Z,34.20
2019-03-06T18:42:04.151Z,25.93
2019-03-06T18:44:33.038Z,22.23
2019-03-06T18:47:01.950Z,21.20
2019-03-06T18:49:30.698Z,10.40
2019-03-06T18:51:59.581Z,10.10
2019-03-06T18:54:28.461Z,11.03
2019-03-06T18:56:58.755Z,11.80
2019-03-06T18:59:27.485Z,13.57
2019-03-06T19:01:56.304Z,16.13
2019-03-06T19:04:25.045Z,14.90
2019-03-06T19:06:53.766Z,16.07
2019-03-06T19:09:22.976Z,35.23
2019-03-06T19:11:51.709Z,28.87
2019-03-06T19:14:20.539Z,56.93
2019-03-06T19:16:49.445Z,91.43
2019-03-06T19:19:18.183Z,91.63
2019-03-06T19:21:47.014Z,70.07
2019-03-06T19:24:15.882Z,24.43
2019-03-06T19:26:44.618Z,11.50
2019-03-06T19:29:13.346Z,8.77
2019-03-06T19:31:42.304Z,9.27
2019-03-06T19:34:11.133Z,8.33
2019-03-06T19:36:39.863Z,7.83
2019-03-06T19:39:08.693Z,16.80
2019-03-06T19:41:37.603Z,20.23
2019-03-06T19:44:06.536Z,8.63
2019-03-06T19:46:36.945Z,12.77
2019-03-06T19:49:05.704Z,18.77
2019-03-06T19:51:34.439Z,14.57
2019-03-06T19:54:04.850Z,9.23
2019-03-06T19:56:33.751Z,27.03
2019-03-06T19:59:02.487Z,28.77
2019-03-06T20:01:32.060Z,21.40
2019-03-06T20:04:00.896Z,30.23
2019-03-06T20:06:29.624Z,17.83
2019-03-06T20:08:58.406Z,14.40
2019-03-06T20:11:27.413Z,13.17
2019-03-06T20:13:56.161Z,13.30
2019-03-06T20:16:25.178Z,14.70
2019-03-06T20:18:54.119Z,15.43
2019-03-06T20:21:22.916Z,17.77
2019-03-06T20:23:51.687Z,20.63
2019-03-06T20:26:22.332Z,22.37
2019-03-06T20:28:51.072Z,18.73
2019-03-06T20:31:20.196Z,18.37
2019-03-06T20:33:49.604Z,19.87
2019-03-06T20:36:18.341Z,18.37
2019-03-06T20:38:47.347Z,12.73
2019-03-06T20:41:16.072Z,13.20
2019-03-06T20:43:45.049Z,14.07
2019-03-06T20:46:14.017Z,17.03
2019-03-06T20:48:42.746Z,26.37
2019-03-06T20:51:11.498Z,42.13
2019-03-06T20:53:40.395Z,33.47
2019-03-06T20:56:09.152Z,36.90
2019-03-06T20:58:37.955Z,38.03
2019-03-06T21:01:06.945Z,39.27
2019-03-06T21:03:35.671Z,33.73
2019-03-06T21:06:05.519Z,38.07
2019-03-06T21:08:34.398Z,36.27
2019-03-06T21:11:03.150Z,28.50
2019-03-06T21:13:31.983Z,65.73
2019-03-06T21:16:00.769Z,52.43
2019-03-06T21:18:29.502Z,31.90
2019-03-06T21:20:58.413Z,34.43
2019-03-06T21:23:27.244Z,34.43
2019-03-06T21:25:55.985Z,42.37
2019-03-06T21:28:24.720Z,40.53
2019-03-06T21:30:53.913Z,41.93
2019-03-06T21:33:22.654Z,40.27
2019-03-06T21:35:51.406Z,37.23
2019-03-06T21:38:21.249Z,34.83
2019-03-06T21:40:49.980Z,33.23
2019-03-06T21:43:18.727Z,26.57
2019-03-06T21:45:47.797Z,32.03
2019-03-06T21:48:16.531Z,30.87
2019-03-06T21:50:45.274Z,24.90
2019-03-06T21:53:15.165Z,26.77
2019-03-06T21:55:43.912Z,77.47
2019-03-06T21:58:12.654Z,105.93
2019-03-06T22:00:41.812Z,76.00
2019-03-06T22:03:10.599Z,19.73
2019-03-06T22:05:39.339Z,15.63
2019-03-06T22:08:08.522Z,17.90
2019-03-06T22:10:37.250Z,10.07
2019-03-06T22:13:05.971Z,9.70
2019-03-06T22:15:34.758Z,13.73
2019-03-06T22:18:03.503Z,12.13
2019-03-06T22:20:32.241Z,10.77
2019-03-06T22:23:04.465Z,12.77
2019-03-06T22:25:33.203Z,10.00
2019-03-06T22:28:01.919Z,9.70
2019-03-06T22:30:31.067Z,9.70
2019-03-06T22:32:59.805Z,11.40
2019-03-06T22:35:28.528Z,11.13
2019-03-06T22:37:57.612Z,12.13
2019-03-06T22:40:26.376Z,11.03
2019-03-06T22:42:57.112Z,10.07
2019-03-06T22:45:26.015Z,9.33
2019-03-06T22:47:54.743Z,7.67
2019-03-06T22:50:23.465Z,7.70
2019-03-06T22:52:52.522Z,7.80
2019-03-06T22:55:21.557Z,7.67
2019-03-06T22:57:50.287Z,6.93
2019-03-06T23:00:32.193Z,7.33
2019-03-06T23:03:01.946Z,9.10
2019-03-06T23:05:35.386Z,11.80
2019-03-06T23:08:05.403Z,12.80
2019-03-06T23:10:35.472Z,11.40
2019-03-06T23:13:04.199Z,16.17
2019-03-06T23:15:33.013Z,16.13
2019-03-06T23:18:01.881Z,19.03
2019-03-06T23:20:30.607Z,13.63
2019-03-06T23:22:59.498Z,12.83
2019-03-06T23:25:28.227Z,17.33
2019-03-06T23:27:56.955Z,10.00
2019-03-06T23:30:25.744Z,13.97
2019-03-06T23:32:54.473Z,18.20
2019-03-06T23:35:23.212Z,17.60
2019-03-06T23:37:52.090Z,18.50
2019-03-06T23:40:20.819Z,18.33
2019-03-06T23:42:49.560Z,23.30
2019-03-06T23:45:18.453Z,24.20
2019-03-06T23:47:47.183Z,25.57
2019-03-06T23:50:15.919Z,28.67
2019-03-06T23:53:02.420Z,10.50
2019-03-06T23:55:32.559Z,11.97
2019-03-06T23:58:01.276Z,14.93
